Latest Weather Observations for Inverell RS

IDN60801

Issued at 3:04 pm EDT Friday 27 February 2015 (issued every 30 minutes, with the page automatically refreshed every 10 minutes)

About weather observations | Map of weather stations | Latest weather observations for NSW | Other Formats
Station Details ID: 056018 Name: INVERELL RESEARCH CENTRE Lat: -29.78 Lon: 151.08 Height: 664.0 m
Data from the previous 72 hours. | See also: Recent months at Inverell RS
Date/Time
EDT
Temp
°C
App
Temp
°C
Dew
Point
Rel
Hum
%
Delta-T
°C
Wind Press
QNH
hPa
Press
MSL
hPa
Rain
since 9 am
mm
Dir
 
Spd
km/h
Gust
km/h
Spd
kts
Gust
kts
27/03:00pm 25.7 26.0 17.1 59 5.5 NNE 11 19 6 10 1009.9 1006.3 0.2
27/02:30pm 25.7 25.6 17.8 61 5.1 N 15 24 8 13 1010.2 - 0.2
27/02:00pm 25.2 25.5 17.1 60 5.2 N 11 19 6 10 1010.5 - 0.2
27/01:30pm 24.8 24.3 16.0 58 5.5 N 13 19 7 10 1011.0 - 0.2
27/01:00pm 24.7 24.2 16.8 61 5.0 NNE 15 24 8 13 1011.4 - 0.2
27/12:30pm 24.8 24.9 16.6 60 5.2 NNE 11 17 6 9 1011.8 - 0.2
27/12:00pm 24.1 23.2 15.8 59 5.2 N 15 20 8 11 1012.0 1008.5 0.2
27/11:30am 23.0 23.6 16.8 68 3.9 ENE 9 15 5 8 1012.1 - 0.2
27/11:00am 22.6 23.5 16.5 68 3.8 E 7 11 4 6 1012.3 - 0.2
27/10:30am 21.1 22.1 16.3 74 3.0 E 6 9 3 5 1012.1 - 0.2
27/10:00am 20.4 21.1 16.2 77 2.6 SE 7 11 4 6 1012.1 - 0.0
27/09:30am 19.4 20.1 16.0 81 2.1 NNE 7 9 4 5 1011.9 - 0.0
27/09:00am 18.4 19.0 15.9 85 1.5 NNE 7 13 4 7 1011.7 1008.1 21.6
27/08:30am 17.8 18.1 16.0 89 1.1 NE 9 13 5 7 1011.4 - 21.6
27/08:00am 17.0 18.6 16.0 94 0.6 ENE 2 7 1 4 1011.3 - 21.6
27/07:30am 16.2 17.9 15.2 94 0.6 CALM 0 0 0 0 1011.0 - 21.6
27/07:00am 16.1 17.8 15.3 95 0.5 CALM 0 0 0 0 1010.7 - 21.6
27/06:30am 16.1 17.2 15.6 97 0.3 SE 4 7 2 4 1010.4 - 21.6
27/06:00am 15.7 17.3 15.0 96 0.4 CALM 0 0 0 0 1010.0 1006.4 21.6
27/05:30am 16.3 15.8 15.0 92 0.8 NNW 11 13 6 7 1009.7 - 21.6
27/05:00am 16.3 16.3 15.3 94 0.6 NNW 9 13 5 7 1009.9 - 21.6
27/04:30am 16.6 16.7 15.4 93 0.7 NNW 9 13 5 7 1010.0 - 21.6
27/04:00am 16.9 16.1 15.1 89 1.1 N 13 20 7 11 1009.8 - 21.2
27/03:30am 16.8 16.8 15.3 91 0.9 NNW 9 13 5 7 1009.9 - 21.2
27/03:00am 16.7 17.1 15.2 91 0.9 NNE 7 9 4 5 1009.7 1006.0 21.2
27/02:30am 16.6 17.2 15.4 93 0.7 E 6 11 3 6 1009.5 - 21.2
27/02:29am 16.6 17.2 15.4 93 0.7 E 6 9 3 5 1009.5 - 21.2
27/02:00am 16.6 15.3 15.9 96 0.4 SSE 17 28 9 15 1011.5 - 20.4
27/01:30am 18.2 17.6 16.6 90 1.0 SSW 15 22 8 12 1011.0 - 15.0
27/01:00am 19.2 20.0 16.3 83 1.8 S 7 9 4 5 1010.4 - 13.4
27/12:30am 19.0 19.4 16.2 84 1.7 SE 9 13 5 7 1010.1 - 13.2
27/12:00am 18.7 18.8 16.6 87 1.3 SE 11 15 6 8 1010.5 1007.0 13.2
 
Date/Time
EDT
Temp
°C
App
Temp
°C
Dew
Point
Rel
Hum
%
Delta-T
°C
Wind Press
QNH
hPa
Press
MSL
hPa
Rain
since 9 am
mm
Dir
 
Spd
km/h
Gust
km/h
Spd
kts
Gust
kts
26/11:30pm 19.0 19.4 16.4 85 1.6 ENE 9 11 5 6 1010.3 - 13.2
26/11:00pm 19.5 19.9 16.4 82 1.9 N 9 17 5 9 1010.4 - 13.2
26/10:30pm 19.8 20.4 15.9 78 2.4 NNE 7 13 4 7 1010.5 - 13.2
26/10:00pm 19.4 19.4 16.2 82 2.0 ESE 11 17 6 9 1010.4 - 13.2
26/09:30pm 20.2 20.9 17.0 82 2.0 SSE 9 15 5 8 1010.4 - 13.0
26/09:00pm 21.1 22.4 17.5 80 2.3 ENE 7 11 4 6 1010.0 1006.4 12.4
26/08:30pm 20.8 22.4 18.3 85 1.6 NE 7 11 4 6 1009.5 - 12.4
26/08:00pm 20.0 22.2 18.4 90 1.0 N 4 9 2 5 1009.0 - 12.4
26/07:30pm 20.0 22.8 18.9 93 0.7 WNW 2 9 1 5 1008.7 - 12.4
26/07:00pm 20.2 23.5 19.0 93 0.8 CALM 0 0 0 0 1008.5 - 12.4
26/06:30pm 20.1 21.8 18.5 90 1.0 E 7 11 4 6 1008.7 - 12.4
26/06:00pm 17.0 15.8 16.0 94 0.6 N 17 32 9 17 1008.7 1005.3 12.4
26/05:50pm 18.8 16.0 17.2 90 1.0 W 28 37 15 20 1010.1 - -
26/05:49pm 19.0 14.2 17.6 92 0.9 SSW 39 56 21 30 1010.1 - -
26/05:47pm 19.0 14.7 17.9 93 0.7 SSW 37 56 20 30 1010.1 - 5.6
26/05:46pm 18.8 17.8 17.5 92 0.8 S 19 50 10 27 1009.1 - -
26/05:45pm 18.8 17.8 17.5 92 0.8 S 19 50 10 27 1009.1 - 3.6
26/05:30pm 26.2 25.8 16.2 54 6.3 NE 13 17 7 9 1008.4 - 0.0
26/05:00pm 26.0 26.0 16.2 54 6.2 NNE 11 19 6 10 1008.7 - 0.0
26/04:30pm 25.8 25.9 16.5 56 5.9 NE 11 17 6 9 1008.8 - 0.0
26/04:00pm 25.3 25.2 16.1 56 5.8 NNE 11 17 6 9 1009.5 - 0.0
26/03:30pm 25.5 25.8 16.1 56 5.9 NE 9 15 5 8 1009.5 - 0.0
26/03:00pm 25.8 26.1 16.9 58 5.7 NE 11 17 6 9 1010.1 1006.5 0.0
26/02:30pm 24.6 24.7 16.5 60 5.1 NNE 11 17 6 9 1010.9 - 0.0
26/02:00pm 24.0 24.7 17.1 65 4.4 ENE 9 15 5 8 1011.3 - 0.0
26/01:30pm 23.4 23.5 16.6 65 4.3 ENE 11 19 6 10 1011.6 - 0.0
26/01:00pm 23.2 23.4 16.7 67 4.1 E 11 15 6 8 1011.8 - 0.0
26/12:30pm 23.0 23.9 16.6 67 4.0 ENE 7 13 4 7 1012.2 - 0.0
26/12:00pm 22.8 23.1 15.9 65 4.3 NE 9 15 5 8 1012.6 1009.0 0.0
26/11:30am 21.7 22.2 15.5 68 3.8 E 7 11 4 6 1012.9 - 0.0
26/11:00am 21.1 22.0 16.6 75 2.8 SE 7 9 4 5 1012.9 - 0.0
26/10:30am 20.8 21.6 15.9 73 3.0 E 6 9 3 5 1013.0 - 0.0
26/10:00am 21.4 22.5 15.5 69 3.6 NE 4 7 2 4 1013.1 - 0.0
26/09:30am 20.9 21.0 15.5 71 3.3 N 9 13 5 7 1012.9 - 0.0
26/09:00am 21.4 21.5 15.5 69 3.6 N 9 13 5 7 1012.8 1009.2 0.0
26/08:30am 20.5 20.7 15.8 74 2.9 N 9 13 5 7 1012.5 - 0.0
26/08:00am 19.0 19.7 15.7 81 2.0 N 6 7 3 4 1012.3 - 0.0
26/07:30am 18.9 19.4 15.6 81 2.0 N 7 9 4 5 1012.2 - 0.0
26/07:00am 18.6 19.1 15.5 82 1.9 N 7 9 4 5 1012.1 - 0.0
26/06:30am 18.8 19.2 15.2 79 2.2 N 7 9 4 5 1011.9 - 0.0
26/06:00am 18.4 18.9 15.1 81 2.0 NNW 6 9 3 5 1011.7 1008.1 0.0
26/05:30am 18.3 19.2 15.1 81 1.9 NNE 4 7 2 4 1011.5 - 0.0
26/05:00am 18.1 19.8 15.3 84 1.7 CALM 0 0 0 0 1011.5 - 0.0
26/04:30am 18.3 20.0 15.3 83 1.8 CALM 0 0 0 0 1011.8 - 0.0
26/04:00am 18.8 19.7 15.0 78 2.3 NNE 4 9 2 5 1011.8 - 0.0
26/03:30am 18.5 19.0 15.0 80 2.1 NNE 6 9 3 5 1012.1 - 0.0
26/03:00am 18.6 18.5 14.9 79 2.2 ENE 9 11 5 6 1012.1 1008.6 0.0
26/02:30am 19.1 18.6 15.0 77 2.5 ENE 11 15 6 8 1012.2 - 0.0
26/02:00am 19.6 19.2 15.1 75 2.7 NE 11 17 6 9 1012.7 - 0.0
26/01:30am 19.6 19.2 15.3 76 2.6 ENE 11 17 6 9 1013.1 - 0.0
26/01:00am 19.6 19.2 15.3 76 2.6 ENE 11 17 6 9 1013.4 - 0.0
26/12:30am 19.9 19.6 15.5 76 2.7 NE 11 15 6 8 1013.4 - 0.0
26/12:00am 20.0 20.1 15.6 76 2.7 NE 9 13 5 7 1013.7 1010.2 0.0
 
Date/Time
EDT
Temp
°C
App
Temp
°C
Dew
Point
Rel
Hum
%
Delta-T
°C
Wind Press
QNH
hPa
Press
MSL
hPa
Rain
since 9 am
mm
Dir
 
Spd
km/h
Gust
km/h
Spd
kts
Gust
kts
25/11:30pm 20.3 20.1 15.7 75 2.8 NE 11 13 6 7 1013.5 - 0.0
25/11:00pm 20.4 20.7 16.0 76 2.7 ENE 9 15 5 8 1013.6 - 0.0
25/10:30pm 21.1 20.4 16.3 74 3.0 ENE 15 22 8 12 1013.9 - 0.0
25/10:00pm 21.4 20.2 16.2 72 3.2 ENE 17 26 9 14 1013.9 - 0.0
25/09:30pm 22.2 21.4 16.1 68 3.8 E 15 20 8 11 1013.5 - 0.0
25/09:00pm 22.4 21.5 15.8 66 4.1 E 15 24 8 13 1012.7 1009.0 0.0
25/08:30pm 23.3 22.5 15.2 60 5.0 E 13 26 7 14 1012.2 - 0.0
25/08:00pm 23.8 23.0 14.1 54 5.9 E 11 17 6 9 1012.1 - 0.0
25/07:30pm 25.1 23.5 12.7 46 7.4 E 13 19 7 10 1011.8 - 0.0
25/07:00pm 26.2 23.3 12.4 42 8.2 E 19 26 10 14 1011.7 - 0.0
25/06:30pm 28.5 25.1 11.4 34 10.1 ESE 20 28 11 15 1011.5 - 0.0
25/06:00pm 28.4 28.7 13.3 39 9.2 S 4 7 2 4 1010.7 1007.2 0.0
25/05:30pm 27.8 27.9 12.7 39 9.1 SE 4 9 2 5 1010.7 - 0.0
25/05:00pm 29.3 27.3 11.5 33 10.6 ESE 13 17 7 9 1011.0 - 0.0
25/04:30pm 28.7 25.0 10.1 31 10.8 ESE 20 32 11 17 1011.4 - 0.0
25/04:00pm 29.6 27.5 11.2 32 10.9 S 13 22 7 12 1011.6 - 0.0
25/03:30pm 29.8 28.3 10.5 30 11.3 S 9 17 5 9 1012.0 - 0.0
25/03:00pm 29.4 27.8 12.7 35 10.1 SW 13 19 7 10 1012.5 1008.9 0.0
25/02:30pm 29.9 29.8 14.9 40 9.4 S 9 20 5 11 1013.1 - 0.0
25/02:00pm 29.1 28.5 14.7 41 9.0 NNE 11 17 6 9 1013.7 - 0.0
25/01:30pm 28.5 29.0 15.5 45 8.2 SSW 7 15 4 8 1014.2 - 0.0
25/01:00pm 27.7 27.0 14.2 43 8.3 N 11 17 6 9 1014.6 - 0.0
25/12:30pm 27.0 27.3 14.9 47 7.5 SE 7 11 4 6 1015.1 - 0.0
25/12:00pm 26.3 25.9 15.2 50 6.9 ENE 11 19 6 10 1015.4 1011.9 0.0
25/11:30am 25.7 25.8 15.4 53 6.4 N 9 17 5 9 1015.6 - 0.0
25/11:00am 25.2 24.7 15.0 53 6.3 ENE 11 19 6 10 1015.8 - 0.0
25/10:30am 24.6 23.5 15.2 55 5.8 ENE 15 22 8 12 1015.9 - 0.0
25/10:00am 23.7 22.2 15.4 59 5.1 E 17 26 9 14 1015.9 - 0.0
25/09:30am 21.6 21.2 15.2 67 3.9 E 11 15 6 8 1015.8 - 0.0
25/09:00am 21.2 20.8 15.3 69 3.6 E 11 15 6 8 1015.9 1012.3 0.0
25/08:30am 20.6 20.8 14.6 68 3.6 SE 7 11 4 6 1015.6 - 0.0
25/08:00am 20.3 20.7 14.8 70 3.3 SSE 6 7 3 4 1015.3 - 0.0
25/07:30am 18.8 19.2 14.8 77 2.4 S 6 9 3 5 1015.1 - 0.0
25/07:00am 16.5 17.4 14.1 86 1.4 NNW 2 6 1 3 1014.9 - 0.0
25/06:30am 16.5 17.7 13.9 84 1.5 CALM 0 0 0 0 1014.6 - 0.0
25/06:00am 16.7 18.0 14.1 85 1.5 CALM 0 0 0 0 1014.3 1010.7 0.0
25/05:30am 16.8 17.7 14.1 84 1.6 ENE 2 9 1 5 1013.9 - 0.0
25/05:00am 17.2 17.2 14.1 82 1.8 E 7 11 4 6 1013.8 - 0.0
25/04:30am 17.9 18.2 14.4 80 2.1 ESE 6 11 3 6 1013.6 - 0.0
25/04:00am 17.8 18.8 14.4 80 2.0 E 2 7 1 4 1013.8 - 0.0
25/03:30am 18.5 18.8 14.5 77 2.4 NNE 6 13 3 7 1013.8 - 0.0
25/03:00am 17.5 18.4 15.0 85 1.5 NNW 4 6 2 3 1014.1 1010.5 0.0
25/02:30am 17.5 18.0 15.0 85 1.5 ESE 6 7 3 4 1014.1 - 0.0
25/02:00am 18.2 18.5 15.0 81 1.9 SSE 7 9 4 5 1014.4 - 0.0
25/01:30am 18.3 18.9 15.3 83 1.8 ESE 6 7 3 4 1014.5 - 0.0
25/01:00am 18.8 19.4 15.7 82 1.9 SSE 7 9 4 5 1014.9 - 0.0
25/12:30am 19.3 19.9 15.9 81 2.1 SE 7 9 4 5 1015.1 - 0.0
25/12:00am 19.6 21.2 16.0 80 2.2 ENE 2 6 1 3 1015.2 1011.7 0.0
 
Date/Time
EDT
Temp
°C
App
Temp
°C
Dew
Point
Rel
Hum
%
Delta-T
°C
Wind Press
QNH
hPa
Press
MSL
hPa
Rain
since 9 am
mm
Dir
 
Spd
km/h
Gust
km/h
Spd
kts
Gust
kts
24/11:30pm 19.9 20.6 16.2 79 2.3 E 7 11 4 6 1015.3 - 0.0
24/11:00pm 20.4 20.4 16.2 77 2.6 E 11 17 6 9 1015.6 - 0.0
24/10:30pm 20.5 21.3 16.3 77 2.6 ENE 7 9 4 5 1015.6 - 0.0
24/10:00pm 21.0 20.5 16.0 73 3.1 E 13 17 7 9 1015.4 - 0.0
24/09:30pm 21.5 20.2 15.8 70 3.5 E 17 26 9 14 1015.4 - 0.0
24/09:00pm 22.6 20.9 14.7 61 4.8 E 17 22 9 12 1015.0 1011.5 0.0
24/08:30pm 24.0 22.4 15.1 57 5.5 E 17 26 9 14 1014.5 - 0.0
24/08:02pm 25.0 21.0 15.3 55 6.0 E 30 48 16 26 1014.1 - 0.0
24/08:01pm 25.0 21.0 15.3 55 6.0 E 30 48 16 26 1014.1 - 0.0
24/08:00pm 25.1 20.7 15.1 53 6.2 E 32 48 17 26 1014.1 - 0.0
24/07:58pm 25.5 20.9 15.0 52 6.5 ESE 33 48 18 26 1014.1 - 0.0
24/07:57pm 25.5 20.9 15.0 52 6.5 ESE 33 48 18 26 1014.1 - 0.0
24/07:30pm 26.3 25.6 13.2 44 7.9 ESE 9 11 5 6 1013.1 - 0.0
24/07:00pm 27.9 26.3 11.5 36 9.7 SSE 11 17 6 9 1012.6 - 0.0
24/06:30pm 29.6 28.2 12.1 34 10.5 SSE 11 17 6 9 1012.1 - 0.0
24/06:00pm 30.3 29.4 12.5 33 10.8 SSE 9 15 5 8 1011.9 1008.4 0.0
24/05:30pm 29.5 28.5 12.4 35 10.3 S 9 17 5 9 1011.8 - 0.0
24/05:00pm 29.5 27.7 12.2 34 10.4 S 13 24 7 13 1011.8 - 0.0
24/04:30pm 30.2 28.5 13.7 36 10.2 S 15 20 8 11 1011.9 - 0.0
24/04:00pm 29.3 27.9 13.5 38 9.7 S 13 19 7 10 1012.1 - 0.0
24/03:30pm 29.6 28.5 13.0 36 10.1 SW 11 19 6 10 1012.2 - 0.0

Other Formats:

Comma delimited format used in spreadsheet applications
http://www.bom.gov.au/fwo/IDN60801/IDN60801.94541.axf

JavaScript Object Notation format (JSON) in row-major order
http://www.bom.gov.au/fwo/IDN60801/IDN60801.94541.json